Time;durP1;ratioP1;P1;durP2;ratioP2;P2;SDS_P1;SDS_P2;PMS_P1;PMS_P2;Temp;Humidity;BMP_temperature;BMP_pressure;BME280_temperature;BME280_humidity;BME280_pressure;Samples;Min_cycle;Max_cycle;Signal;HPM_P1;HPM_P2
2023/05/08 00:00:05;;;;;;;;;14.00;12.33;;;;;-143.57;100.00;65101.44;5097813;27;46079;-44
2023/05/08 00:02:30;;;;;;;;;15.33;12.33;;;;;-143.57;100.00;65101.44;5098060;27;45337;-43
2023/05/08 00:04:56;;;;;;;;;13.33;11.67;;;;;-143.57;100.00;65101.44;5097266;27;45341;-45
2023/05/08 00:07:21;;;;;;;;;9.67;8.33;;;;;-143.57;100.00;65101.44;5098446;27;45220;-47
2023/05/08 00:09:47;;;;;;;;;16.67;12.00;;;;;-143.57;100.00;65101.44;5097824;27;45425;-46
2023/05/08 00:12:12;;;;;;;;;11.33;11.33;;;;;-143.57;100.00;65101.44;5097683;27;45453;-45
2023/05/08 00:14:37;;;;;;;;;11.67;11.00;;;;;-143.57;100.00;65101.44;5097962;27;45783;-43
2023/05/08 00:17:03;;;;;;;;;12.67;11.00;;;;;-143.57;100.00;65101.44;5098134;27;45411;-45
2023/05/08 00:19:28;;;;;;;;;11.00;10.00;;;;;-143.57;100.00;65101.44;5097537;27;46842;-44
2023/05/08 00:21:53;;;;;;;;;10.00;9.33;;;;;-143.57;100.00;65101.44;5097871;27;45329;-43
2023/05/08 00:24:19;;;;;;;;;15.00;14.00;;;;;-143.57;100.00;65101.44;5097809;27;45378;-45
2023/05/08 00:26:44;;;;;;;;;12.00;10.67;;;;;-143.57;100.00;65101.44;5097925;27;45571;-45
2023/05/08 00:29:10;;;;;;;;;16.00;14.33;;;;;-143.57;100.00;65101.44;5096643;27;45450;-45
2023/05/08 00:31:35;;;;;;;;;12.33;10.00;;;;;-143.57;100.00;65101.44;5097712;27;45416;-44
2023/05/08 00:34:01;;;;;;;;;15.00;13.33;;;;;-143.57;100.00;65101.44;5097852;27;45427;-44
2023/05/08 00:36:26;;;;;;;;;14.67;12.00;;;;;-143.57;100.00;65101.44;5097994;27;45358;-46
2023/05/08 00:38:51;;;;;;;;;11.00;11.00;;;;;-143.57;100.00;65101.44;5097561;27;46941;-45
2023/05/08 00:41:17;;;;;;;;;15.33;13.67;;;;;-143.57;100.00;65101.44;5097837;27;45341;-45
2023/05/08 00:43:42;;;;;;;;;13.67;11.67;;;;;-143.57;100.00;65101.44;5097721;27;45432;-46
2023/05/08 00:46:10;;;;;;;;;12.00;11.00;;;;;-143.57;100.00;65101.44;5097675;27;45527;-47
2023/05/08 00:48:38;;;;;;;;;18.00;11.00;;;;;-143.57;100.00;65101.44;5097250;27;46268;-44
2023/05/08 00:51:07;;;;;;;;;14.00;9.33;;;;;-143.57;100.00;65101.44;5097186;27;45391;-44
2023/05/08 00:53:36;;;;;;;;;11.00;11.00;;;;;-143.57;100.00;65101.44;5097607;27;45369;-45
2023/05/08 00:56:02;;;;;;;;;15.33;12.00;;;;;-143.57;100.00;65101.44;5097609;27;45309;-46
2023/05/08 00:58:31;;;;;;;;;12.33;12.00;;;;;-143.57;100.00;65101.44;5097004;27;46161;-47
2023/05/08 01:00:57;;;;;;;;;10.67;9.00;;;;;-143.57;100.00;65101.44;5097281;27;45198;-45
2023/05/08 01:03:23;;;;;;;;;10.00;10.00;;;;;-143.57;100.00;65101.44;5097296;27;45337;-46
2023/05/08 01:05:48;;;;;;;;;11.67;10.00;;;;;-143.57;100.00;65101.44;5097665;27;45327;-44
2023/05/08 01:08:14;;;;;;;;;14.67;12.00;;;;;-143.57;100.00;65101.44;5097082;27;46420;-46
2023/05/08 01:11:10;;;;;;;;;11.33;10.33;;;;;-143.57;100.00;65101.44;5097626;27;45290;-44
2023/05/08 01:14:09;;;;;;;;;14.67;12.00;;;;;-143.57;100.00;65101.44;5097499;27;45348;-45
2023/05/08 01:16:42;;;;;;;;;10.33;10.00;;;;;-143.57;100.00;65101.44;5100611;27;45277;-44
2023/05/08 01:19:39;;;;;;;;;11.33;9.67;;;;;-143.57;100.00;65101.44;5100499;27;46360;-44
2023/05/08 01:22:36;;;;;;;;;14.00;10.33;;;;;-143.57;100.00;65101.44;5100786;27;45364;-45
2023/05/08 01:25:39;;;;;;;;;18.00;15.00;;;;;-143.57;100.00;65101.44;5115960;27;62960;-44
2023/05/08 01:28:16;;;;;;;;;11.67;11.00;;;;;-143.57;100.00;65101.44;5100900;27;45461;-44
2023/05/08 01:30:55;;;;;;;;;11.00;11.00;;;;;-143.57;100.00;65101.44;5100856;27;45292;-44
2023/05/08 01:33:34;;;;;;;;;14.67;12.67;;;;;-143.57;100.00;65101.44;5100588;27;45412;-43
2023/05/08 01:36:10;;;;;;;;;14.67;10.67;;;;;-143.57;100.00;65101.44;5100595;27;45360;-45
2023/05/08 01:38:46;;;;;;;;;15.00;13.00;;;;;-143.57;100.00;65101.44;5100803;27;45381;-46
2023/05/08 01:41:16;;;;;;;;;11.33;9.00;;;;;-143.57;100.00;65101.44;5100549;27;47723;-45
2023/05/08 01:43:59;;;;;;;;;13.00;11.00;;;;;-143.57;100.00;65101.44;5099755;27;45405;-47
2023/05/08 01:46:27;;;;;;;;;15.00;13.00;;;;;-143.57;100.00;65101.44;5100310;27;45226;-44
2023/05/08 01:49:04;;;;;;;;;15.00;13.00;;;;;-143.57;100.00;65101.44;5100373;27;45465;-46
2023/05/08 01:51:38;;;;;;;;;14.33;11.00;;;;;-143.57;100.00;65101.44;5099670;27;45432;-44
2023/05/08 01:54:08;;;;;;;;;16.67;14.33;;;;;-143.57;100.00;65101.44;5081699;27;45426;-43
2023/05/08 01:56:35;;;;;;;;;15.33;13.00;;;;;-143.57;100.00;65101.44;5100323;27;45354;-48
2023/05/08 01:59:04;;;;;;;;;15.33;12.00;;;;;-143.57;100.00;65101.44;5100595;27;45338;-45
2023/05/08 02:01:32;;;;;;;;;14.33;11.67;;;;;-143.57;100.00;65101.44;5100305;27;46122;-46
2023/05/08 02:03:59;;;;;;;;;14.67;13.33;;;;;-143.57;100.00;65101.44;5099758;27;45552;-44
2023/05/08 02:06:27;;;;;;;;;14.33;12.33;;;;;-143.57;100.00;65101.44;5100391;27;45328;-43
2023/05/08 02:08:54;;;;;;;;;14.00;10.00;;;;;-143.57;100.00;65101.44;5100437;27;45348;-46
2023/05/08 02:11:23;;;;;;;;;16.00;13.00;;;;;-143.57;100.00;65101.44;5099976;27;46363;-45
2023/05/08 02:13:50;;;;;;;;;15.00;14.33;;;;;-143.57;100.00;65101.44;5099434;27;45510;-44
2023/05/08 02:16:16;;;;;;;;;12.00;12.00;;;;;-143.57;100.00;65101.44;5099883;27;45349;-44
2023/05/08 02:18:50;;;;;;;;;15.00;13.33;;;;;-143.57;100.00;65101.44;5081666;27;45499;-44
2023/05/08 02:21:17;;;;;;;;;15.33;14.00;;;;;-143.57;100.00;65101.44;5099433;27;46230;-45
2023/05/08 02:23:45;;;;;;;;;15.67;12.00;;;;;-143.57;100.00;65101.44;5099608;27;45262;-46
2023/05/08 02:26:14;;;;;;;;;18.67;14.33;;;;;-143.57;100.00;65101.44;5099714;27;45194;-45
2023/05/08 02:28:41;;;;;;;;;20.33;17.00;;;;;-143.57;100.00;65101.44;5099496;27;45287;-46
2023/05/08 02:31:08;;;;;;;;;16.33;15.33;;;;;-143.57;100.00;65101.44;5099643;27;45268;-44
2023/05/08 02:33:35;;;;;;;;;25.33;19.00;;;;;-143.57;100.00;65101.44;5099340;27;45421;-44
2023/05/08 02:36:02;;;;;;;;;20.67;18.67;;;;;-143.57;100.00;65101.44;5099537;27;45357;-46
2023/05/08 02:38:29;;;;;;;;;18.33;14.67;;;;;-143.57;100.00;65101.44;5099751;27;45288;-44
2023/05/08 02:40:59;;;;;;;;;18.33;13.33;;;;;-143.57;100.00;65101.44;5099350;27;46293;-45
2023/05/08 02:43:25;;;;;;;;;17.00;13.67;;;;;-143.57;100.00;65101.44;5080924;27;45395;-44
2023/05/08 02:46:09;;;;;;;;;23.33;15.67;;;;;-143.57;100.00;65101.44;5099262;27;45406;-45
2023/05/08 02:48:59;;;;;;;;;21.33;20.33;;;;;-143.57;100.00;65101.44;5099643;27;45468;-44
2023/05/08 02:51:34;;;;;;;;;19.00;14.33;;;;;-143.57;100.00;65101.44;5112764;27;45511;-44
2023/05/08 02:54:34;;;;;;;;;19.00;16.00;;;;;-143.57;100.00;65101.44;5099276;27;45333;-45
2023/05/08 02:57:20;;;;;;;;;16.33;13.67;;;;;-143.57;100.00;65101.44;5099325;27;45304;-44
2023/05/08 02:59:55;;;;;;;;;25.00;19.33;;;;;-143.57;100.00;65101.44;5099561;27;45950;-44
2023/05/08 03:02:25;;;;;;;;;18.33;17.00;;;;;-143.57;100.00;65101.44;5098991;27;46368;-43
2023/05/08 03:04:58;;;;;;;;;21.00;21.00;;;;;-143.57;100.00;65101.44;5099114;27;45311;-44
2023/05/08 03:07:27;;;;;;;;;19.00;17.33;;;;;-143.57;100.00;65101.44;5099305;27;45306;-45
2023/05/08 03:10:02;;;;;;;;;22.33;17.33;;;;;-143.57;100.00;65101.44;5080612;27;45374;-44
2023/05/08 03:12:32;;;;;;;;;22.00;14.00;;;;;-143.57;100.00;65101.44;5099351;27;45454;-47
2023/05/08 03:15:27;;;;;;;;;19.00;15.33;;;;;-143.57;100.00;65101.44;5098930;27;45228;-44
2023/05/08 03:17:57;;;;;;;;;16.67;16.67;;;;;-143.57;100.00;65101.44;5087779;27;45292;-45
2023/05/08 03:20:26;;;;;;;;;24.67;19.00;;;;;-143.57;100.00;65101.44;5099098;27;45487;-44
2023/05/08 03:22:54;;;;;;;;;22.00;18.00;;;;;-143.57;100.00;65101.44;5098866;27;47099;-47
2023/05/08 03:25:20;;;;;;;;;17.33;14.33;;;;;-143.57;100.00;65101.44;5098651;27;45340;-46
2023/05/08 03:27:47;;;;;;;;;23.33;19.33;;;;;-143.57;100.00;65101.44;5098954;27;45324;-45
2023/05/08 03:30:14;;;;;;;;;26.00;21.67;;;;;-143.57;100.00;65101.44;5099279;27;45383;-44
2023/05/08 03:32:41;;;;;;;;;17.33;15.33;;;;;-143.57;100.00;65101.44;5098562;27;46397;-46
2023/05/08 03:35:08;;;;;;;;;20.33;17.67;;;;;-143.57;100.00;65101.44;5098554;27;45254;-46
2023/05/08 03:37:34;;;;;;;;;20.33;15.00;;;;;-143.57;100.00;65101.44;5098883;27;45483;-44
2023/05/08 03:39:59;;;;;;;;;23.33;16.33;;;;;-143.57;100.00;65101.44;5097301;27;45287;-45
2023/05/08 03:42:26;;;;;;;;;20.00;18.33;;;;;-143.57;100.00;65101.44;5114452;27;46257;-44
2023/05/08 03:44:52;;;;;;;;;22.67;18.67;;;;;-143.57;100.00;65101.44;5080036;27;45308;-45
2023/05/08 03:47:24;;;;;;;;;26.67;18.33;;;;;-143.57;100.00;65101.44;5098536;27;45369;-47
2023/05/08 03:49:51;;;;;;;;;23.33;20.00;;;;;-143.57;100.00;65101.44;5098785;27;45513;-46
2023/05/08 03:52:17;;;;;;;;;30.67;24.00;;;;;-143.57;100.00;65101.44;5098085;27;45896;-45
2023/05/08 03:54:42;;;;;;;;;29.00;21.00;;;;;-143.57;100.00;65101.44;5096995;27;45587;-46
2023/05/08 03:57:08;;;;;;;;;24.00;18.67;;;;;-143.57;100.00;65101.44;5098356;27;45397;-46
2023/05/08 03:59:36;;;;;;;;;28.33;20.33;;;;;-143.57;100.00;65101.44;5098455;27;45456;-45
2023/05/08 04:02:11;;;;;;;;;21.33;20.00;;;;;-143.57;100.00;65101.44;5098199;27;46073;-44
2023/05/08 04:04:42;;;;;;;;;18.67;17.00;;;;;-143.57;100.00;65101.44;5098033;27;45358;-48
2023/05/08 04:07:14;;;;;;;;;21.67;18.67;;;;;-143.57;100.00;65101.44;5097787;27;45349;-47
2023/05/08 04:10:26;;;;;;;;;24.33;18.33;;;;;-143.57;100.00;65101.44;5098351;27;45184;-47
2023/05/08 04:13:03;;;;;;;;;22.00;16.67;;;;;-143.57;100.00;65101.44;5075178;28;46468;-45
2023/05/08 04:15:30;;;;;;;;;29.00;21.67;;;;;-143.57;100.00;65101.44;5075015;28;45407;-44
2023/05/08 04:18:07;;;;;;;;;25.67;19.33;;;;;-143.57;100.00;65101.44;5075294;28;45485;-47
2023/05/08 04:20:33;;;;;;;;;24.00;19.00;;;;;-143.57;100.00;65101.44;5075019;28;45445;-46
2023/05/08 04:22:59;;;;;;;;;23.00;15.33;;;;;-143.57;100.00;65101.44;5075018;28;46752;-45
2023/05/08 04:25:26;;;;;;;;;34.33;23.67;;;;;-143.57;100.00;65101.44;5074986;28;45396;-44
2023/05/08 04:27:53;;;;;;;;;24.67;20.33;;;;;-143.57;100.00;65101.44;5075397;28;45375;-47
2023/05/08 04:30:19;;;;;;;;;39.67;23.33;;;;;-143.57;100.00;65101.44;5075170;28;45582;-44
2023/05/08 04:32:45;;;;;;;;;24.33;19.67;;;;;-143.57;100.00;65101.44;5074913;28;46539;-44
2023/05/08 04:35:12;;;;;;;;;28.00;22.33;;;;;-143.57;100.00;65101.44;5075080;28;45509;-44
2023/05/08 04:37:38;;;;;;;;;24.33;21.00;;;;;-143.57;100.00;65101.44;5074966;28;45352;-45
2023/05/08 04:40:04;;;;;;;;;32.67;26.33;;;;;-143.57;100.00;65101.44;5075232;28;45495;-46
2023/05/08 04:42:29;;;;;;;;;21.00;20.67;;;;;-143.57;100.00;65101.44;5076876;27;46205;-44
2023/05/08 04:44:54;;;;;;;;;23.33;18.33;;;;;-143.57;100.00;65101.44;5097498;27;45437;-45
2023/05/08 04:47:20;;;;;;;;;27.00;23.00;;;;;-143.57;100.00;65101.44;5097874;27;45522;-48
2023/05/08 04:49:46;;;;;;;;;23.00;19.33;;;;;-143.57;100.00;65101.44;5097461;27;45769;-47
2023/05/08 04:52:11;;;;;;;;;26.33;18.00;;;;;-143.57;100.00;65101.44;5097245;27;46019;-45
2023/05/08 04:54:37;;;;;;;;;28.33;22.00;;;;;-143.57;100.00;65101.44;5097410;27;45416;-45
2023/05/08 04:57:03;;;;;;;;;26.00;20.33;;;;;-143.57;100.00;65101.44;5097426;27;45396;-45
2023/05/08 04:59:28;;;;;;;;;27.33;20.67;;;;;-143.57;100.00;65101.44;5097350;27;45402;-48
2023/05/08 05:01:54;;;;;;;;;24.00;17.67;;;;;-143.57;100.00;65101.44;5097271;27;46433;-45
2023/05/08 05:04:21;;;;;;;;;23.33;22.33;;;;;-143.57;100.00;65101.44;5097503;27;45336;-47
2023/05/08 05:06:46;;;;;;;;;21.33;20.33;;;;;-143.57;100.00;65101.44;5096881;27;45463;-45
2023/05/08 05:09:12;;;;;;;;;19.00;14.00;;;;;-143.57;100.00;65101.44;5097480;27;45457;-46
2023/05/08 05:11:37;;;;;;;;;48.00;35.00;;;;;-143.57;100.00;65101.44;5097167;27;45409;-46
2023/05/08 05:14:03;;;;;;;;;24.00;16.67;;;;;-143.57;100.00;65101.44;5097361;27;45448;-47
2023/05/08 05:16:28;;;;;;;;;28.00;22.00;;;;;-143.57;100.00;65101.44;5097322;27;45535;-45
2023/05/08 05:18:53;;;;;;;;;22.67;19.33;;;;;-143.57;100.00;65101.44;5097439;27;45345;-45
2023/05/08 05:21:19;;;;;;;;;21.00;19.33;;;;;-143.57;100.00;65101.44;5096929;27;45919;-45
2023/05/08 05:23:44;;;;;;;;;19.33;14.00;;;;;-143.57;100.00;65101.44;5097163;27;45301;-45
2023/05/08 05:26:10;;;;;;;;;23.00;18.00;;;;;-143.57;100.00;65101.44;5097123;27;45355;-45
2023/05/08 05:28:35;;;;;;;;;21.33;16.67;;;;;-143.57;100.00;65101.44;5097166;27;45465;-45
2023/05/08 05:31:01;;;;;;;;;23.00;18.00;;;;;-143.57;100.00;65101.44;5097128;27;46267;-45
2023/05/08 05:33:26;;;;;;;;;20.67;16.33;;;;;-143.57;100.00;65101.44;5096968;27;45365;-45
2023/05/08 05:35:52;;;;;;;;;19.33;17.67;;;;;-143.57;100.00;65101.44;5097114;27;45317;-47
2023/05/08 05:38:17;;;;;;;;;21.33;17.67;;;;;-143.57;100.00;65101.44;5097040;27;45627;-44
2023/05/08 05:40:43;;;;;;;;;18.67;16.00;;;;;-143.57;100.00;65101.44;5096510;27;46116;-47
2023/05/08 05:43:08;;;;;;;;;20.00;16.67;;;;;-143.57;100.00;65101.44;5096720;27;45297;-48
2023/05/08 05:45:35;;;;;;;;;18.33;17.67;;;;;-143.57;100.00;65101.44;5096586;27;45546;-46
2023/05/08 05:48:00;;;;;;;;;25.33;18.67;;;;;-143.57;100.00;65101.44;5097161;27;45375;-47
2023/05/08 05:50:27;;;;;;;;;29.67;19.33;;;;;-143.57;100.00;65101.44;5096711;27;47101;-46
2023/05/08 05:52:53;;;;;;;;;28.33;21.00;;;;;-143.57;100.00;65101.44;5096612;27;45326;-47
2023/05/08 05:55:18;;;;;;;;;19.00;19.00;;;;;-143.57;100.00;65101.44;5096732;27;45395;-45
2023/05/08 05:57:44;;;;;;;;;24.00;22.67;;;;;-143.57;100.00;65101.44;5096812;27;45726;-43
2023/05/08 06:00:10;;;;;;;;;27.33;22.67;;;;;-143.57;100.00;65101.44;5096436;27;46076;-46
2023/05/08 06:02:36;;;;;;;;;28.33;19.33;;;;;-143.57;100.00;65101.44;5098152;27;45493;-45
2023/05/08 06:05:01;;;;;;;;;33.00;23.33;;;;;-143.57;100.00;65101.44;5100103;27;45395;-47
2023/05/08 06:07:27;;;;;;;;;25.00;21.67;;;;;-143.57;100.00;65101.44;5100151;27;45591;-44
2023/05/08 06:09:52;;;;;;;;;23.00;19.33;;;;;-143.57;100.00;65101.44;5100041;27;46027;-45
2023/05/08 06:12:18;;;;;;;;;24.00;21.00;;;;;-143.57;100.00;65101.44;5100193;27;45336;-47
2023/05/08 06:14:43;;;;;;;;;62.25;46.50;;;;;-143.57;100.00;65101.44;5099938;27;45407;-46
2023/05/08 06:17:09;;;;;;;;;38.00;33.67;;;;;-143.57;100.00;65101.44;5100149;27;45244;-46
2023/05/08 06:19:34;;;;;;;;;34.00;27.67;;;;;-143.57;100.00;65101.44;5099618;27;46152;-46
2023/05/08 06:21:59;;;;;;;;;29.50;26.50;;;;;-143.57;100.00;65101.44;5099801;27;45368;-45
2023/05/08 06:24:25;;;;;;;;;36.00;28.33;;;;;-143.57;100.00;65101.44;5099052;27;45766;-45
2023/05/08 06:26:50;;;;;;;;;39.67;30.33;;;;;-143.57;100.00;65101.44;5100299;27;45196;-45
2023/05/08 06:29:15;;;;;;;;;28.00;27.33;;;;;-143.57;100.00;65101.44;5099625;27;46076;-48
2023/05/08 06:31:41;;;;;;;;;30.67;25.67;;;;;-143.57;100.00;65101.44;5099726;27;45435;-47
2023/05/08 06:34:06;;;;;;;;;25.33;22.00;;;;;-143.57;100.00;65101.44;5100000;27;45277;-45
2023/05/08 06:36:32;;;;;;;;;27.33;27.00;;;;;-143.57;100.00;65101.44;5099593;27;45370;-44
2023/05/08 06:38:57;;;;;;;;;29.00;27.33;;;;;-143.57;100.00;65101.44;5099637;27;46131;-46
2023/05/08 06:41:23;;;;;;;;;65.00;49.00;;;;;-143.57;100.00;65101.44;5099252;27;45480;-43
2023/05/08 06:43:48;;;;;;;;;43.33;34.00;;;;;-143.57;100.00;65101.44;5099566;27;45274;-45
2023/05/08 06:46:13;;;;;;;;;28.33;25.00;;;;;-143.57;100.00;65101.44;5099391;27;45452;-45
2023/05/08 06:48:39;;;;;;;;;30.67;24.00;;;;;-143.57;100.00;65101.44;5099183;27;46965;-45
2023/05/08 06:51:04;;;;;;;;;33.33;26.67;;;;;-143.57;100.00;65101.44;5099478;27;45372;-43
2023/05/08 06:53:30;;;;;;;;;23.00;22.67;;;;;-143.57;100.00;65101.44;5099226;27;45341;-45
2023/05/08 06:55:57;;;;;;;;;22.00;20.00;;;;;-143.57;100.00;65101.44;5099792;27;45255;-47
2023/05/08 06:58:23;;;;;;;;;21.67;16.67;;;;;-143.57;100.00;65101.44;5099305;27;47128;-43
2023/05/08 07:00:48;;;;;;;;;28.67;22.67;;;;;-143.57;100.00;65101.44;5098966;27;45444;-47
2023/05/08 07:03:13;;;;;;;;;23.67;17.00;;;;;-143.57;100.00;65101.44;5099325;27;45366;-45
2023/05/08 07:05:39;;;;;;;;;24.67;19.67;;;;;-143.57;100.00;65101.44;5099303;27;45254;-45
2023/05/08 07:08:04;;;;;;;;;30.33;22.00;;;;;-143.57;100.00;65101.44;5098870;27;46198;-46
2023/05/08 07:10:29;;;;;;;;;24.00;22.00;;;;;-143.57;100.00;65101.44;5099300;27;45416;-46
2023/05/08 07:12:55;;;;;;;;;21.67;17.33;;;;;-143.57;100.00;65101.44;5080276;27;45843;-46
2023/05/08 07:15:20;;;;;;;;;16.67;16.00;;;;;-143.57;100.00;65101.44;5099538;27;45235;-45
2023/05/08 07:17:46;;;;;;;;;15.00;15.00;;;;;-143.57;100.00;65101.44;5099004;27;47088;-45
2023/05/08 07:20:11;;;;;;;;;23.33;16.67;;;;;-143.57;100.00;65101.44;5098847;27;45235;-44
2023/05/08 07:22:37;;;;;;;;;15.67;14.33;;;;;-143.57;100.00;65101.44;5098906;27;45248;-44
2023/05/08 07:25:03;;;;;;;;;19.33;15.00;;;;;-143.57;100.00;65101.44;5099095;27;45330;-43
2023/05/08 07:27:28;;;;;;;;;13.67;12.00;;;;;-143.57;100.00;65101.44;5080267;27;47552;-52
2023/05/08 07:29:54;;;;;;;;;21.00;16.00;;;;;-143.57;100.00;65101.44;5098750;27;45435;-43
2023/05/08 07:32:19;;;;;;;;;17.33;12.00;;;;;-143.57;100.00;65101.44;5098688;27;45866;-45
2023/05/08 07:34:44;;;;;;;;;7.33;7.33;;;;;-143.57;100.00;65101.44;5098923;27;45315;-46
2023/05/08 07:37:10;;;;;;;;;13.67;13.33;;;;;-143.57;100.00;65101.44;5098368;27;46026;-44
2023/05/08 07:39:35;;;;;;;;;20.00;16.67;;;;;-143.57;100.00;65101.44;5098419;27;45313;-45
2023/05/08 07:42:01;;;;;;;;;16.67;13.33;;;;;-143.57;100.00;65101.44;5098637;27;45333;-44
2023/05/08 07:44:26;;;;;;;;;17.33;11.00;;;;;-143.57;100.00;65101.44;5098766;27;45434;-44
2023/05/08 07:46:51;;;;;;;;;17.33;14.00;;;;;-143.57;100.00;65101.44;5097759;27;49936;-44
2023/05/08 07:49:17;;;;;;;;;14.00;12.33;;;;;-143.57;100.00;65101.44;5098423;27;45253;-47
2023/05/08 07:51:42;;;;;;;;;18.00;14.00;;;;;-143.57;100.00;65101.44;5098384;27;45422;-44
2023/05/08 07:54:07;;;;;;;;;20.00;13.00;;;;;-143.57;100.00;65101.44;5098187;27;45317;-43
2023/05/08 07:56:33;;;;;;;;;19.67;17.67;;;;;-143.57;100.00;65101.44;5098068;27;45514;-45
2023/05/08 07:58:58;;;;;;;;;17.67;14.67;;;;;-143.57;100.00;65101.44;5097992;27;45396;-48
2023/05/08 08:01:23;;;;;;;;;20.33;15.67;;;;;-143.57;100.00;65101.44;5098189;27;45312;-45
2023/05/08 08:03:49;;;;;;;;;17.33;13.33;;;;;-143.57;100.00;65101.44;5098357;27;45323;-45
2023/05/08 08:06:14;;;;;;;;;15.00;15.00;;;;;-143.57;100.00;65101.44;5097851;27;46141;-44
2023/05/08 08:08:40;;;;;;;;;11.33;11.33;;;;;-143.57;100.00;65101.44;5098006;27;45287;-46
2023/05/08 08:11:06;;;;;;;;;17.00;13.67;;;;;-143.57;100.00;65101.44;5098312;27;45432;-46
2023/05/08 08:13:31;;;;;;;;;20.67;12.67;;;;;-143.57;100.00;65101.44;5098296;27;45331;-45
2023/05/08 08:15:57;;;;;;;;;22.00;12.67;;;;;-143.57;100.00;65101.44;5098033;27;45374;-46
2023/05/08 08:18:23;;;;;;;;;14.67;14.67;;;;;-143.57;100.00;65101.44;5097810;27;45624;-44
2023/05/08 08:20:48;;;;;;;;;17.33;13.00;;;;;-143.57;100.00;65101.44;5098212;27;45405;-45
2023/05/08 08:23:13;;;;;;;;;16.00;12.00;;;;;-143.57;100.00;65101.44;5098208;27;45514;-43
2023/05/08 08:25:39;;;;;;;;;18.00;13.00;;;;;-143.57;100.00;65101.44;5097201;27;45361;-45
2023/05/08 08:28:04;;;;;;;;;15.00;14.33;;;;;-143.57;100.00;65101.44;5113787;27;45428;-46
2023/05/08 08:30:29;;;;;;;;;16.67;12.67;;;;;-143.57;100.00;65101.44;5097688;27;45413;-44
2023/05/08 08:32:55;;;;;;;;;17.00;13.67;;;;;-143.57;100.00;65101.44;5097991;27;45270;-46
2023/05/08 08:35:21;;;;;;;;;15.00;15.00;;;;;-143.57;100.00;65101.44;5098091;27;46076;-46
2023/05/08 08:37:47;;;;;;;;;21.33;15.33;;;;;-143.57;100.00;65101.44;5097725;27;45653;-46
2023/05/08 08:40:12;;;;;;;;;17.33;15.00;;;;;-143.57;100.00;65101.44;5097681;27;45302;-46
2023/05/08 08:42:37;;;;;;;;;13.00;13.00;;;;;-143.57;100.00;65101.44;5097962;27;45239;-46
2023/05/08 08:45:03;;;;;;;;;14.67;13.00;;;;;-143.57;100.00;65101.44;5096989;27;45450;-43
2023/05/08 08:47:39;;;;;;;;;17.67;14.00;;;;;-143.57;100.00;65101.44;5113546;27;45318;-44
2023/05/08 08:50:07;;;;;;;;;14.00;14.00;;;;;-143.57;100.00;65101.44;5097501;27;45480;-45
2023/05/08 08:52:46;;;;;;;;;15.00;11.67;;;;;-143.57;100.00;65101.44;5097509;27;45504;-43
2023/05/08 08:55:16;;;;;;;;;9.67;9.33;;;;;-143.57;100.00;65101.44;5097195;27;45282;-46
2023/05/08 08:58:02;;;;;;;;;13.00;11.00;;;;;-143.57;100.00;65101.44;5097350;27;45430;-46
2023/05/08 09:00:30;;;;;;;;;13.67;10.33;;;;;-143.57;100.00;65101.44;5097026;27;45522;-45
2023/05/08 09:02:56;;;;;;;;;13.67;10.67;;;;;-143.57;100.00;65101.44;5096512;27;45601;-46
2023/05/08 09:05:22;;;;;;;;;14.33;10.33;;;;;-143.57;100.00;65101.44;5097416;27;45346;-43
2023/05/08 09:07:48;;;;;;;;;15.00;10.00;;;;;-143.57;100.00;65101.44;5096946;27;45309;-44
2023/05/08 09:10:14;;;;;;;;;13.33;10.33;;;;;-143.57;100.00;65101.44;5097395;27;45382;-43
2023/05/08 09:12:41;;;;;;;;;14.33;9.00;;;;;-143.57;100.00;65101.44;5097653;27;45461;-45
2023/05/08 09:15:06;;;;;;;;;12.00;9.33;;;;;-143.57;100.00;65101.44;5097111;27;45372;-42
2023/05/08 09:17:32;;;;;;;;;12.00;11.00;;;;;-143.57;100.00;65101.44;5078616;27;45350;-45
2023/05/08 09:19:57;;;;;;;;;12.33;7.00;;;;;-143.57;100.00;65101.44;5097712;27;45460;-46
2023/05/08 09:22:24;;;;;;;;;12.67;11.00;;;;;-143.57;100.00;65101.44;5097887;27;45377;-47
2023/05/08 09:24:58;;;;;;;;;10.00;10.00;;;;;-143.57;100.00;65101.44;5097015;27;46252;-46
2023/05/08 09:27:25;;;;;;;;;7.67;7.67;;;;;-143.57;100.00;65101.44;5097041;27;45418;-44
2023/05/08 09:30:07;;;;;;;;;9.00;9.00;;;;;-143.57;100.00;65101.44;5097209;27;45347;-45
2023/05/08 09:32:36;;;;;;;;;9.33;8.67;;;;;-143.57;100.00;65101.44;5097468;27;45330;-46
2023/05/08 09:35:02;;;;;;;;;9.67;8.67;;;;;-143.57;100.00;65101.44;5096810;27;46367;-47
2023/05/08 09:37:28;;;;;;;;;12.67;9.67;;;;;-143.57;100.00;65101.44;5099552;27;45429;-49
2023/05/08 09:40:11;;;;;;;;;11.67;10.00;;;;;-143.57;100.00;65101.44;5082237;27;45340;-46
2023/05/08 09:42:37;;;;;;;;;9.67;8.33;;;;;-143.57;100.00;65101.44;5100755;27;45351;-47
2023/05/08 09:45:03;;;;;;;;;8.67;8.67;;;;;-143.57;100.00;65101.44;5100152;27;47144;-47
2023/05/08 09:47:28;;;;;;;;;11.67;10.00;;;;;-143.57;100.00;65101.44;5100214;27;45750;-47
2023/05/08 09:50:01;;;;;;;;;9.67;9.67;;;;;-143.57;100.00;65101.44;5100431;27;45313;-46
2023/05/08 09:52:27;;;;;;;;;16.33;11.67;;;;;-143.57;100.00;65101.44;5100545;27;45529;-47
2023/05/08 09:55:06;;;;;;;;;13.33;9.67;;;;;-143.57;100.00;65101.44;5100276;27;45265;-46
2023/05/08 09:57:37;;;;;;;;;9.67;9.67;;;;;-143.57;100.00;65101.44;5100081;27;45310;-47
2023/05/08 10:00:07;;;;;;;;;16.00;14.00;;;;;-143.57;100.00;65101.44;5100383;27;45223;-49
2023/05/08 10:02:34;;;;;;;;;10.33;9.33;;;;;-143.57;100.00;65101.44;5100498;27;45370;-48
2023/05/08 10:05:00;;;;;;;;;12.67;11.33;;;;;-143.57;100.00;65101.44;5099670;27;46155;-43
2023/05/08 10:07:34;;;;;;;;;13.25;9.25;;;;;-143.57;100.00;65101.44;5100219;27;45248;-42
2023/05/08 10:10:02;;;;;;;;;10.00;8.50;;;;;-143.57;100.00;65101.44;5099929;27;45414;-47
2023/05/08 10:12:28;;;;;;;;;12.00;11.00;;;;;-143.57;100.00;65101.44;5099468;27;45461;-42
2023/05/08 10:14:54;;;;;;;;;13.75;11.75;;;;;-143.57;100.00;65101.44;5099892;27;47146;-45
2023/05/08 10:17:25;;;;;;;;;12.00;10.00;;;;;-143.57;100.00;65101.44;5100027;27;45413;-43
2023/05/08 10:19:57;;;;;;;;;10.60;9.20;;;;;-143.57;100.00;65101.44;5099973;27;45369;-44
2023/05/08 10:22:24;;;;;;;;;7.20;7.20;;;;;-143.57;100.00;65101.44;5100084;27;45357;-43
2023/05/08 10:24:54;;;;;;;;;12.80;11.20;;;;;-143.57;100.00;65101.44;5099592;27;46379;-42
2023/05/08 10:27:29;;;;;;;;;9.00;8.00;;;;;-143.57;100.00;65101.44;5100021;27;45264;-45
2023/05/08 10:29:59;;;;;;;;;9.40;7.80;;;;;-143.57;100.00;65101.44;5099062;27;45457;-43
2023/05/08 10:32:27;;;;;;;;;4.60;3.80;;;;;-143.57;100.00;65101.44;5100014;27;45495;-46
2023/05/08 10:34:57;;;;;;;;;8.20;8.20;;;;;-143.57;100.00;65101.44;5099647;27;46027;-44
2023/05/08 10:37:22;;;;;;;;;10.40;6.60;;;;;-143.57;100.00;65101.44;5099658;27;45414;-43
2023/05/08 10:39:49;;;;;;;;;8.00;8.00;;;;;-143.57;100.00;65101.44;5098961;27;45545;-45
2023/05/08 10:42:14;;;;;;;;;9.00;8.60;;;;;-143.57;100.00;65101.44;5099150;27;45584;-42
2023/05/08 10:44:39;;;;;;;;;11.50;10.00;;;;;-143.57;100.00;65101.44;5099181;27;46311;-43
2023/05/08 10:47:23;;;;;;;;;8.25;6.25;;;;;-143.57;100.00;65101.44;5098840;27;45460;-43
2023/05/08 10:49:59;;;;;;;;;10.40;8.00;;;;;-143.57;100.00;65101.44;5099489;27;45448;-42
2023/05/08 10:52:49;;;;;;;;;5.60;5.40;;;;;-143.57;100.00;65101.44;5099791;27;45403;-45
2023/05/08 10:55:31;;;;;;;;;7.00;6.80;;;;;-143.57;100.00;65101.44;5099069;27;46178;-43
2023/05/08 10:58:09;;;;;;;;;11.20;9.40;;;;;-143.57;100.00;65101.44;5099222;27;45451;-42
2023/05/08 11:00:52;;;;;;;;;8.00;8.00;;;;;-143.57;100.00;65101.44;5098969;27;45469;-41
2023/05/08 11:03:29;;;;;;;;;12.60;9.40;;;;;-143.57;100.00;65101.44;5115534;27;45402;-42